createdAt,value
2018-12-21T00:00:12.704Z,0
2018-12-21T00:01:22.397Z,0
2018-12-21T00:02:32.342Z,0
2018-12-21T00:03:42.039Z,0
2018-12-21T00:04:51.983Z,0
2018-12-21T00:06:01.917Z,0
2018-12-21T00:07:11.601Z,0
2018-12-21T00:08:21.557Z,0
2018-12-21T00:09:31.494Z,0
2018-12-21T00:10:41.236Z,0
2018-12-21T00:11:51.204Z,0
2018-12-21T00:13:00.899Z,0
2018-12-21T00:14:10.624Z,0
2018-12-21T00:15:20.576Z,0
2018-12-21T00:16:30.516Z,0
2018-12-21T00:17:43.954Z,0
2018-12-21T00:18:53.891Z,0
2018-12-21T00:20:03.922Z,0
2018-12-21T00:21:21.590Z,0
2018-12-21T00:22:31.712Z,0
2018-12-21T00:23:41.679Z,0
2018-12-21T00:24:51.625Z,0
2018-12-21T00:26:01.321Z,0
2018-12-21T00:27:11.025Z,0
2018-12-21T00:28:20.953Z,0
2018-12-21T00:29:30.890Z,0
2018-12-21T00:30:40.571Z,0
2018-12-21T00:31:50.508Z,0
2018-12-21T00:33:00.461Z,0
2018-12-21T00:34:10.483Z,0
2018-12-21T00:35:19.922Z,0
2018-12-21T00:36:29.348Z,0
2018-12-21T00:37:39.042Z,0
2018-12-21T00:38:48.490Z,0
2018-12-21T00:39:58.443Z,0
2018-12-21T00:41:08.382Z,0
2018-12-21T00:42:18.112Z,0
2018-12-21T00:43:27.802Z,0
2018-12-21T00:44:37.739Z,0
2018-12-21T00:45:47.686Z,0
2018-12-21T00:46:57.394Z,0
2018-12-21T00:48:07.360Z,0
2018-12-21T00:49:17.292Z,0
2018-12-21T00:50:27.228Z,0
2018-12-21T00:51:39.951Z,0
2018-12-21T00:52:49.632Z,0
2018-12-21T00:53:59.575Z,0
2018-12-21T00:55:09.502Z,0
2018-12-21T00:56:19.429Z,0
2018-12-21T00:57:29.125Z,0
2018-12-21T00:58:39.081Z,0
2018-12-21T00:59:49.026Z,0
2018-12-21T01:00:58.977Z,0
2018-12-21T01:02:08.416Z,0
2018-12-21T01:03:17.865Z,0
2018-12-21T01:04:27.806Z,0
2018-12-21T01:05:37.746Z,0
2018-12-21T01:06:47.681Z,0
2018-12-21T01:07:57.407Z,0
2018-12-21T01:09:07.352Z,0
2018-12-21T01:10:17.352Z,0
2018-12-21T01:11:27.057Z,0
2018-12-21T01:12:37.002Z,0
2018-12-21T01:13:46.945Z,0
2018-12-21T01:14:56.887Z,0
2018-12-21T01:16:06.821Z,0
2018-12-21T01:17:16.769Z,0
2018-12-21T01:18:26.714Z,0
2018-12-21T01:19:36.652Z,0
2018-12-21T01:20:46.594Z,0
2018-12-21T01:21:56.274Z,0
2018-12-21T01:23:05.962Z,0
2018-12-21T01:24:15.650Z,0
2018-12-21T01:25:25.102Z,0
2018-12-21T01:26:35.031Z,0
2018-12-21T01:27:44.819Z,0
2018-12-21T01:28:54.760Z,0
2018-12-21T01:30:04.446Z,0
2018-12-21T01:31:14.138Z,0
2018-12-21T01:32:23.819Z,0
2018-12-21T01:33:33.502Z,0
2018-12-21T01:34:43.238Z,0
2018-12-21T01:35:53.177Z,0
2018-12-21T01:37:02.863Z,0
2018-12-21T01:38:12.809Z,0
2018-12-21T01:39:22.764Z,0
2018-12-21T01:40:32.714Z,0
2018-12-21T01:41:42.647Z,0
2018-12-21T01:42:52.565Z,0
2018-12-21T01:44:02.249Z,0
2018-12-21T01:45:11.675Z,0
2018-12-21T01:46:21.601Z,0
2018-12-21T01:47:31.273Z,0
2018-12-21T01:48:40.942Z,0
2018-12-21T01:49:50.889Z,0
2018-12-21T01:51:00.576Z,0
2018-12-21T01:52:10.502Z,0
2018-12-21T01:53:20.436Z,0
2018-12-21T01:54:30.395Z,0
2018-12-21T01:55:40.334Z,0
2018-12-21T01:56:50.012Z,0
2018-12-21T01:57:59.696Z,0
2018-12-21T01:59:09.622Z,0
2018-12-21T02:00:19.317Z,0
2018-12-21T02:01:29.257Z,0
2018-12-21T02:02:38.962Z,0
2018-12-21T02:03:48.418Z,0
2018-12-21T02:04:58.360Z,0
2018-12-21T02:06:08.312Z,0
2018-12-21T02:07:18.241Z,0
2018-12-21T02:08:28.170Z,0
2018-12-21T02:09:38.120Z,0
2018-12-21T02:10:48.043Z,0
2018-12-21T02:11:57.976Z,0
2018-12-21T02:13:07.654Z,0
2018-12-21T02:14:17.084Z,0
2018-12-21T02:15:26.575Z,0
2018-12-21T02:16:36.264Z,0
2018-12-21T02:17:45.944Z,0
2018-12-21T02:18:55.694Z,0
2018-12-21T02:20:05.639Z,0
2018-12-21T02:21:15.564Z,0
2018-12-21T02:22:25.485Z,0
2018-12-21T02:23:35.161Z,0
2018-12-21T02:24:45.105Z,0
2018-12-21T02:25:55.051Z,0
2018-12-21T02:27:04.725Z,0
2018-12-21T02:28:14.676Z,0
2018-12-21T02:29:24.147Z,0
2018-12-21T02:30:33.821Z,0
2018-12-21T02:31:43.516Z,0
2018-12-21T02:32:53.456Z,0
2018-12-21T02:34:03.399Z,0
2018-12-21T02:35:12.845Z,0
2018-12-21T02:36:22.826Z,0
2018-12-21T02:37:32.519Z,0
2018-12-21T02:38:42.455Z,0
2018-12-21T02:39:52.393Z,0
2018-12-21T02:41:02.100Z,0
2018-12-21T02:42:11.778Z,0
2018-12-21T02:43:21.456Z,0
2018-12-21T02:44:31.390Z,0
2018-12-21T02:45:41.395Z,0
2018-12-21T02:46:51.199Z,0
2018-12-21T02:48:00.888Z,0
2018-12-21T02:49:10.320Z,0
2018-12-21T02:50:20.000Z,0
2018-12-21T02:51:29.671Z,0
2018-12-21T02:52:39.349Z,0
2018-12-21T02:53:49.294Z,0
2018-12-21T02:54:58.728Z,0
2018-12-21T02:56:08.410Z,0
2018-12-21T02:57:18.345Z,0
2018-12-21T02:58:28.038Z,0
2018-12-21T02:59:37.822Z,0
2018-12-21T03:00:47.754Z,0
2018-12-21T03:01:57.673Z,0
2018-12-21T03:03:07.614Z,0
2018-12-21T03:04:17.561Z,0
2018-12-21T03:05:27.502Z,0
2018-12-21T03:06:37.444Z,0
2018-12-21T03:07:47.732Z,0
2018-12-21T03:08:57.443Z,0
2018-12-21T03:10:07.393Z,0
2018-12-21T03:11:16.830Z,0
2018-12-21T03:12:26.804Z,0
2018-12-21T03:13:36.490Z,0
2018-12-21T03:14:46.444Z,0
2018-12-21T03:15:56.378Z,0
2018-12-21T03:17:06.293Z,0
2018-12-21T03:18:16.269Z,0
2018-12-21T03:19:25.966Z,0
2018-12-21T03:20:35.525Z,0
2018-12-21T03:21:45.236Z,0
2018-12-21T03:22:55.029Z,0
2018-12-21T03:24:04.974Z,0
2018-12-21T03:25:14.914Z,0
2018-12-21T03:26:24.866Z,0
2018-12-21T03:27:34.561Z,0
2018-12-21T03:28:44.249Z,0
2018-12-21T03:29:54.190Z,0
2018-12-21T03:31:04.171Z,0
2018-12-21T03:32:14.174Z,0
2018-12-21T03:33:24.426Z,0
2018-12-21T03:34:33.907Z,0
2018-12-21T03:35:43.617Z,0
2018-12-21T03:36:53.307Z,0
2018-12-21T03:38:03.250Z,0
2018-12-21T03:39:12.934Z,0
2018-12-21T03:40:22.738Z,0
2018-12-21T03:41:32.424Z,0
2018-12-21T03:42:42.120Z,0
2018-12-21T03:43:51.808Z,0
2018-12-21T03:45:01.771Z,0
2018-12-21T03:46:11.454Z,0
2018-12-21T03:47:21.390Z,0
2018-12-21T03:48:31.084Z,0
2018-12-21T03:49:41.142Z,0
2018-12-21T03:50:51.117Z,0
2018-12-21T03:52:01.046Z,0
2018-12-21T03:53:10.738Z,0
2018-12-21T03:54:20.693Z,0
2018-12-21T03:55:30.632Z,0
2018-12-21T03:56:40.562Z,0
2018-12-21T03:57:50.506Z,0
2018-12-21T03:59:00.454Z,0
2018-12-21T04:00:10.149Z,0
2018-12-21T04:01:19.830Z,0
2018-12-21T04:02:30.604Z,0
2018-12-21T04:03:40.543Z,0
2018-12-21T04:04:50.243Z,0
2018-12-21T04:05:59.684Z,0
2018-12-21T04:07:09.417Z,0
2018-12-21T04:08:19.352Z,0
2018-12-21T04:09:29.305Z,0
2018-12-21T04:10:39.306Z,0
2018-12-21T04:11:48.758Z,0
2018-12-21T04:12:58.209Z,0
2018-12-21T04:14:07.662Z,0
2018-12-21T04:15:17.351Z,0
2018-12-21T04:16:27.048Z,0
2018-12-21T04:17:36.736Z,0
2018-12-21T04:18:46.690Z,0
2018-12-21T04:19:56.389Z,0
2018-12-21T04:21:06.347Z,0
2018-12-21T04:22:16.288Z,0
2018-12-21T04:23:25.987Z,0
2018-12-21T04:24:35.917Z,0
2018-12-21T04:25:45.609Z,0
2018-12-21T04:26:55.559Z,0
2018-12-21T04:28:05.513Z,0
2018-12-21T04:29:15.202Z,0
2018-12-21T04:30:25.000Z,0
2018-12-21T04:31:34.684Z,0
2018-12-21T04:32:44.368Z,0
2018-12-21T04:33:54.076Z,0
2018-12-21T04:35:03.786Z,0
2018-12-21T04:36:13.732Z,0
2018-12-21T04:37:23.672Z,0
2018-12-21T04:38:32.887Z,0
2018-12-21T04:39:42.574Z,0
2018-12-21T04:40:52.511Z,0
2018-12-21T04:42:02.462Z,0
2018-12-21T04:43:12.398Z,0
2018-12-21T04:44:22.092Z,0
2018-12-21T04:45:32.044Z,0
2018-12-21T04:46:41.477Z,0
2018-12-21T04:47:50.942Z,0
2018-12-21T04:49:00.904Z,0
2018-12-21T04:50:10.830Z,0
2018-12-21T04:51:20.525Z,0
2018-12-21T04:52:30.486Z,0
2018-12-21T04:53:40.444Z,0
2018-12-21T04:54:50.146Z,0
2018-12-21T04:55:59.603Z,0
2018-12-21T04:57:09.330Z,0
2018-12-21T04:58:19.022Z,0
2018-12-21T04:59:28.454Z,0
2018-12-21T05:00:38.404Z,0
2018-12-21T05:01:48.101Z,0
2018-12-21T05:02:58.043Z,0
2018-12-21T05:04:07.991Z,0
2018-12-21T05:05:18.035Z,0
2018-12-21T05:06:27.987Z,0
2018-12-21T05:07:37.679Z,0
2018-12-21T05:08:47.364Z,0
2018-12-21T05:09:57.059Z,0
2018-12-21T05:11:06.878Z,0
2018-12-21T05:12:16.826Z,0
2018-12-21T05:13:26.504Z,0
2018-12-21T05:14:36.446Z,0
2018-12-21T05:15:46.382Z,0
2018-12-21T05:16:55.924Z,0
2018-12-21T05:18:05.631Z,0
2018-12-21T05:19:15.576Z,0
2018-12-21T05:20:24.785Z,0
2018-12-21T05:21:34.236Z,0
2018-12-21T05:22:52.008Z,0
2018-12-21T05:24:02.132Z,0
2018-12-21T05:25:12.616Z,0
2018-12-21T05:26:22.068Z,0
2018-12-21T05:27:32.002Z,0
2018-12-21T05:28:41.682Z,0
2018-12-21T05:29:51.632Z,0
2018-12-21T05:31:01.091Z,0
2018-12-21T05:32:10.790Z,0
2018-12-21T05:33:20.722Z,0
2018-12-21T05:34:30.436Z,0
2018-12-21T05:35:40.397Z,0
2018-12-21T05:36:50.349Z,0
2018-12-21T05:38:00.036Z,0
2018-12-21T05:39:09.722Z,0
2018-12-21T05:40:19.409Z,0
2018-12-21T05:41:29.340Z,0
2018-12-21T05:42:38.804Z,0
2018-12-21T05:43:48.739Z,0
2018-12-21T05:44:58.760Z,0
2018-12-21T05:46:08.447Z,0
2018-12-21T05:47:18.140Z,0
2018-12-21T05:48:28.074Z,0
2018-12-21T05:49:37.772Z,0
2018-12-21T05:50:47.460Z,0
2018-12-21T05:51:57.402Z,0
2018-12-21T05:53:10.590Z,0
2018-12-21T05:54:20.291Z,0
2018-12-21T05:55:29.983Z,0
2018-12-21T05:56:39.679Z,0
2018-12-21T05:57:48.977Z,0
2018-12-21T05:58:58.671Z,0
2018-12-21T06:00:08.606Z,0
2018-12-21T06:01:18.537Z,0
2018-12-21T06:02:28.564Z,0
2018-12-21T06:03:38.250Z,0
2018-12-21T06:04:48.192Z,0
2018-12-21T06:05:57.898Z,0
2018-12-21T06:07:07.838Z,0
2018-12-21T06:08:17.771Z,0
2018-12-21T06:09:27.727Z,0
2018-12-21T06:10:37.412Z,0
2018-12-21T06:11:47.103Z,0
2018-12-21T06:12:56.552Z,0
2018-12-21T06:14:08.247Z,0
2018-12-21T06:15:18.203Z,0
2018-12-21T06:16:27.887Z,0
2018-12-21T06:17:37.565Z,0
2018-12-21T06:18:47.312Z,0
2018-12-21T06:19:56.746Z,0
2018-12-21T06:21:06.704Z,0
2018-12-21T06:22:16.648Z,0
2018-12-21T06:23:26.333Z,0
2018-12-21T06:24:36.016Z,0
2018-12-21T06:25:45.716Z,0
2018-12-21T06:26:55.494Z,0
2018-12-21T06:28:04.953Z,0
2018-12-21T06:29:14.647Z,0
2018-12-21T06:30:24.343Z,0
2018-12-21T06:31:34.292Z,0
2018-12-21T06:32:44.905Z,0
2018-12-21T06:33:54.606Z,0
2018-12-21T06:35:04.059Z,0
2018-12-21T06:36:14.006Z,0
2018-12-21T06:37:24.077Z,0
2018-12-21T06:38:33.781Z,0
2018-12-21T06:39:43.711Z,0
2018-12-21T06:40:53.660Z,0
2018-12-21T06:42:03.427Z,0
2018-12-21T06:43:13.242Z,0
2018-12-21T06:44:23.199Z,0
2018-12-21T06:45:32.381Z,0
2018-12-21T06:46:42.098Z,0
2018-12-21T06:47:51.781Z,0
2018-12-21T06:49:01.477Z,0
2018-12-21T06:50:11.428Z,0
2018-12-21T06:51:21.373Z,0
2018-12-21T06:52:31.077Z,0
2018-12-21T06:53:41.015Z,0
2018-12-21T06:54:50.957Z,0
2018-12-21T06:56:00.905Z,0
2018-12-21T06:57:10.591Z,0
2018-12-21T06:58:20.369Z,0
2018-12-21T06:59:30.064Z,0
2018-12-21T07:00:39.745Z,0
2018-12-21T07:01:49.415Z,0
2018-12-21T07:02:58.913Z,0
2018-12-21T07:04:08.366Z,0
2018-12-21T07:05:17.813Z,0
2018-12-21T07:06:27.743Z,0
2018-12-21T07:07:37.706Z,0
2018-12-21T07:08:47.385Z,0
2018-12-21T07:09:57.083Z,0
2018-12-21T07:11:06.561Z,0
2018-12-21T07:12:16.507Z,5
2018-12-21T07:13:26.455Z,5
2018-12-21T07:14:35.907Z,5
2018-12-21T07:15:45.616Z,5
2018-12-21T07:16:55.581Z,5
2018-12-21T07:18:05.538Z,5
2018-12-21T07:19:15.515Z,5
2018-12-21T07:20:25.237Z,5
2018-12-21T07:21:34.189Z,5
2018-12-21T07:22:44.145Z,10
2018-12-21T07:23:53.937Z,10
2018-12-21T07:25:03.645Z,10
2018-12-21T07:26:13.746Z,15
2018-12-21T07:27:23.707Z,15
2018-12-21T07:28:33.659Z,15
2018-12-21T07:29:42.874Z,15
2018-12-21T07:30:52.819Z,20
2018-12-21T07:32:02.539Z,20
2018-12-21T07:33:12.515Z,20
2018-12-21T07:34:22.475Z,25
2018-12-21T07:35:32.447Z,25
2018-12-21T07:36:42.397Z,25
2018-12-21T07:37:52.369Z,30
2018-12-21T07:39:02.078Z,30
2018-12-21T07:40:11.802Z,30
2018-12-21T07:41:21.374Z,35
2018-12-21T07:42:31.398Z,35
2018-12-21T07:43:41.100Z,35
2018-12-21T07:44:51.047Z,35
2018-12-21T07:46:01.023Z,35
2018-12-21T07:47:10.487Z,40
2018-12-21T07:48:20.199Z,40
2018-12-21T07:49:30.182Z,40
2018-12-21T07:50:40.127Z,45
2018-12-21T07:51:49.915Z,45
2018-12-21T07:53:00.587Z,45
2018-12-21T07:54:10.075Z,50
2018-12-21T07:55:20.045Z,50
2018-12-21T07:56:29.751Z,50
2018-12-21T07:57:39.468Z,55
2018-12-21T07:58:56.859Z,50
2018-12-21T08:00:07.053Z,50
2018-12-21T08:01:16.756Z,55
2018-12-21T08:02:26.742Z,55
2018-12-21T08:03:36.815Z,55
2018-12-21T08:04:46.787Z,55
2018-12-21T08:05:56.735Z,55
2018-12-21T08:07:06.702Z,55
2018-12-21T08:08:16.670Z,55
2018-12-21T08:09:26.363Z,60
2018-12-21T08:10:36.342Z,65
2018-12-21T08:11:46.288Z,65
2018-12-21T08:12:56.252Z,65
2018-12-21T08:14:06.189Z,65
2018-12-21T08:15:16.127Z,65
2018-12-21T08:16:25.816Z,65
2018-12-21T08:17:35.764Z,65
2018-12-21T08:18:45.252Z,70
2018-12-21T08:19:55.216Z,70
2018-12-21T08:21:05.042Z,70
2018-12-21T08:22:14.491Z,75
2018-12-21T08:23:24.431Z,75
2018-12-21T08:24:34.381Z,80
2018-12-21T08:25:44.069Z,80
2018-12-21T08:26:54.109Z,85
2018-12-21T08:28:04.065Z,85
2018-12-21T08:29:13.518Z,90
2018-12-21T08:30:23.468Z,90
2018-12-21T08:31:33.163Z,90
2018-12-21T08:32:42.877Z,90
2018-12-21T08:33:52.820Z,90
2018-12-21T08:35:02.758Z,90
2018-12-21T08:36:12.710Z,90
2018-12-21T08:37:22.664Z,90
2018-12-21T08:38:32.852Z,95
2018-12-21T08:39:42.808Z,95
2018-12-21T08:40:52.255Z,90
2018-12-21T08:42:01.942Z,85
2018-12-21T08:43:11.662Z,85
2018-12-21T08:44:21.378Z,80
2018-12-21T08:45:31.314Z,80
2018-12-21T08:46:41.256Z,85
2018-12-21T08:47:50.942Z,85
2018-12-21T08:49:02.445Z,80
2018-12-21T08:50:12.388Z,85
2018-12-21T08:51:22.339Z,85
2018-12-21T08:52:32.281Z,80
2018-12-21T08:53:42.227Z,85
2018-12-21T08:54:52.173Z,85
2018-12-21T08:56:02.126Z,85
2018-12-21T08:57:11.610Z,85
2018-12-21T08:58:21.567Z,85
2018-12-21T08:59:31.315Z,85
2018-12-21T09:00:41.329Z,85
2018-12-21T09:01:51.274Z,85
2018-12-21T09:03:00.978Z,85
2018-12-21T09:04:10.980Z,85
2018-12-21T09:05:20.678Z,85
2018-12-21T09:06:30.640Z,90
2018-12-21T09:07:42.053Z,90
2018-12-21T09:08:51.769Z,95
2018-12-21T09:10:01.740Z,95
2018-12-21T09:11:11.202Z,100
2018-12-21T09:12:21.250Z,105
2018-12-21T09:13:30.979Z,105
2018-12-21T09:14:40.977Z,110
2018-12-21T09:15:50.954Z,115
2018-12-21T09:17:00.934Z,120
2018-12-21T09:18:10.671Z,125
2018-12-21T09:19:20.659Z,130
2018-12-21T09:20:30.608Z,135
2018-12-21T09:21:40.583Z,140
2018-12-21T09:22:50.539Z,145
2018-12-21T09:24:07.953Z,150
2018-12-21T09:25:17.656Z,150
2018-12-21T09:26:27.623Z,155
2018-12-21T09:27:37.566Z,160
2018-12-21T09:28:47.519Z,160
2018-12-21T09:29:57.233Z,160
2018-12-21T09:31:07.197Z,160
2018-12-21T09:32:16.922Z,160
2018-12-21T09:33:26.939Z,165
2018-12-21T09:34:36.897Z,170
2018-12-21T09:35:46.851Z,170
2018-12-21T09:36:56.811Z,165
2018-12-21T09:38:06.800Z,165
2018-12-21T09:39:16.733Z,160
2018-12-21T09:40:26.684Z,160
2018-12-21T09:41:36.642Z,160
2018-12-21T09:42:46.613Z,160
2018-12-21T09:43:56.559Z,160
2018-12-21T09:45:06.770Z,160
2018-12-21T09:46:16.485Z,160
2018-12-21T09:47:26.429Z,155
2018-12-21T09:48:36.397Z,155
2018-12-21T09:49:46.101Z,150
2018-12-21T09:50:56.071Z,145
2018-12-21T09:52:05.818Z,140
2018-12-21T09:53:15.765Z,145
2018-12-21T09:54:25.733Z,145
2018-12-21T09:55:35.746Z,155
2018-12-21T09:56:45.205Z,165
2018-12-21T09:57:55.170Z,180
2018-12-21T09:59:05.141Z,185
2018-12-21T10:00:15.079Z,195
2018-12-21T10:01:25.042Z,200
2018-12-21T10:02:42.591Z,205
2018-12-21T10:03:52.299Z,205
2018-12-21T10:05:02.001Z,205
2018-12-21T10:06:11.485Z,200
2018-12-21T10:07:29.895Z,200
2018-12-21T10:08:39.961Z,195
2018-12-21T10:09:49.935Z,195
2018-12-21T10:10:59.993Z,190
2018-12-21T10:12:09.950Z,185
2018-12-21T10:13:19.914Z,185
2018-12-21T10:14:29.623Z,185
2018-12-21T10:15:39.596Z,185
2018-12-21T10:16:49.553Z,185
2018-12-21T10:17:59.253Z,180
2018-12-21T10:19:08.697Z,180
2018-12-21T10:20:22.369Z,175
2018-12-21T10:21:32.317Z,170
2018-12-21T10:22:42.019Z,165
2018-12-21T10:23:51.985Z,165
2018-12-21T10:25:03.484Z,165
2018-12-21T10:26:13.452Z,170
2018-12-21T10:27:23.422Z,170
2018-12-21T10:28:33.130Z,170
2018-12-21T10:29:43.088Z,170
2018-12-21T10:30:52.543Z,170
2018-12-21T10:32:03.910Z,170
2018-12-21T10:33:13.602Z,175
2018-12-21T10:34:23.065Z,175
2018-12-21T10:35:32.524Z,180
2018-12-21T10:36:42.542Z,180
2018-12-21T10:37:52.524Z,185
2018-12-21T10:39:02.234Z,180
2018-12-21T10:40:12.216Z,180
2018-12-21T10:41:22.182Z,180
2018-12-21T10:42:34.129Z,185
2018-12-21T10:43:43.709Z,185
2018-12-21T10:44:53.649Z,185
2018-12-21T10:46:03.618Z,175
2018-12-21T10:47:13.334Z,165
2018-12-21T10:48:23.289Z,150
2018-12-21T10:49:36.750Z,150
2018-12-21T10:50:46.455Z,150
2018-12-21T10:51:56.407Z,145
2018-12-21T10:53:05.868Z,140
2018-12-21T10:54:15.565Z,135
2018-12-21T10:55:25.275Z,135
2018-12-21T10:56:34.963Z,135
2018-12-21T10:57:44.934Z,140
2018-12-21T10:58:57.079Z,145
2018-12-21T11:00:07.142Z,135
2018-12-21T11:01:17.076Z,130
2018-12-21T11:02:27.024Z,120
2018-12-21T11:03:36.869Z,115
2018-12-21T11:04:46.597Z,120
2018-12-21T11:05:56.574Z,120
2018-12-21T11:07:06.019Z,120
2018-12-21T11:08:15.504Z,115
2018-12-21T11:09:25.236Z,110
2018-12-21T11:10:35.418Z,105
2018-12-21T11:11:45.376Z,105
2018-12-21T11:12:55.332Z,115
2018-12-21T11:14:05.040Z,125
2018-12-21T11:15:15.147Z,140
2018-12-21T11:16:25.090Z,150
2018-12-21T11:17:34.790Z,155
2018-12-21T11:18:44.228Z,160
2018-12-21T11:19:54.186Z,160
2018-12-21T11:21:03.950Z,160
2018-12-21T11:22:13.667Z,160
2018-12-21T11:23:23.379Z,155
2018-12-21T11:24:40.416Z,145
2018-12-21T11:25:50.391Z,140
2018-12-21T11:27:00.363Z,140
2018-12-21T11:28:10.325Z,140
2018-12-21T11:29:20.049Z,145
2018-12-21T11:30:30.009Z,145
2018-12-21T11:31:39.977Z,145
2018-12-21T11:32:49.917Z,145
2018-12-21T11:33:59.874Z,135
2018-12-21T11:35:09.598Z,125
2018-12-21T11:36:19.305Z,115
2018-12-21T11:37:29.004Z,105
2018-12-21T11:38:38.707Z,100
2018-12-21T11:39:48.668Z,100
2018-12-21T11:40:58.632Z,95
2018-12-21T11:42:08.584Z,95
2018-12-21T11:43:18.517Z,90
2018-12-21T11:44:28.484Z,90
2018-12-21T11:45:38.438Z,85
2018-12-21T11:46:48.397Z,85
2018-12-21T11:47:57.930Z,85
2018-12-21T11:49:07.877Z,85
2018-12-21T11:50:18.064Z,80
2018-12-21T11:51:27.767Z,85
2018-12-21T11:52:37.738Z,85
2018-12-21T11:53:47.680Z,90
2018-12-21T11:54:59.022Z,80
2018-12-21T11:56:09.094Z,80
2018-12-21T11:57:18.880Z,80
2018-12-21T11:58:28.585Z,80
2018-12-21T11:59:47.210Z,80
2018-12-21T12:00:57.170Z,80
2018-12-21T12:02:06.876Z,90
2018-12-21T12:03:16.814Z,90
2018-12-21T12:04:26.755Z,95
2018-12-21T12:05:36.700Z,100
2018-12-21T12:06:46.663Z,105
2018-12-21T12:07:56.611Z,110
2018-12-21T12:09:13.230Z,105
2018-12-21T12:10:23.173Z,105
2018-12-21T12:11:33.128Z,105
2018-12-21T12:12:44.208Z,100
2018-12-21T12:13:54.187Z,100
2018-12-21T12:15:04.146Z,100
2018-12-21T12:16:14.094Z,105
2018-12-21T12:17:23.800Z,95
2018-12-21T12:18:33.755Z,85
2018-12-21T12:19:43.457Z,80
2018-12-21T12:20:52.905Z,85
2018-12-21T12:22:02.867Z,90
2018-12-21T12:23:12.331Z,95
2018-12-21T12:24:22.013Z,95
2018-12-21T12:25:31.971Z,90
2018-12-21T12:26:49.227Z,85
2018-12-21T12:27:58.937Z,85
2018-12-21T12:29:08.899Z,90
2018-12-21T12:30:18.863Z,90
2018-12-21T12:31:29.082Z,90
2018-12-21T12:32:38.794Z,90
2018-12-21T12:33:48.489Z,90
2018-12-21T12:34:58.427Z,90
2018-12-21T12:36:08.371Z,85
2018-12-21T12:37:18.074Z,80
2018-12-21T12:38:28.029Z,75
2018-12-21T12:39:37.718Z,70
2018-12-21T12:40:47.656Z,60
2018-12-21T12:41:57.604Z,50
2018-12-21T12:43:07.045Z,45
2018-12-21T12:44:17.005Z,40
2018-12-21T12:45:26.946Z,35
2018-12-21T12:46:36.969Z,30
2018-12-21T12:47:46.905Z,30
2018-12-21T12:48:56.605Z,30
2018-12-21T12:50:06.052Z,30
2018-12-21T12:51:15.497Z,30
2018-12-21T12:52:24.936Z,30
2018-12-21T12:53:34.888Z,30
2018-12-21T12:54:44.846Z,30
2018-12-21T12:55:54.797Z,30
2018-12-21T12:57:04.506Z,30
2018-12-21T12:58:14.461Z,30
2018-12-21T12:59:24.432Z,30
2018-12-21T13:00:34.150Z,30
2018-12-21T13:01:44.191Z,30
2018-12-21T13:02:53.903Z,30
2018-12-21T13:04:03.357Z,30
2018-12-21T13:05:13.315Z,25
2018-12-21T13:06:22.751Z,25
2018-12-21T13:07:32.726Z,25
2018-12-21T13:08:43.564Z,20
2018-12-21T13:09:53.516Z,20
2018-12-21T13:11:03.215Z,20
2018-12-21T13:12:13.194Z,25
2018-12-21T13:13:22.916Z,25
2018-12-21T13:14:32.803Z,25
2018-12-21T13:15:42.741Z,25
2018-12-21T13:16:52.439Z,25
2018-12-21T13:18:02.153Z,30
2018-12-21T13:19:12.097Z,25
2018-12-21T13:20:21.785Z,25
2018-12-21T13:21:31.494Z,25
2018-12-21T13:22:41.441Z,25
2018-12-21T13:23:51.153Z,25
2018-12-21T13:25:01.099Z,30
2018-12-21T13:26:10.798Z,25
2018-12-21T13:27:20.519Z,35
2018-12-21T13:28:30.474Z,40
2018-12-21T13:29:40.415Z,40
2018-12-21T13:30:50.390Z,40
2018-12-21T13:32:00.345Z,40
2018-12-21T13:33:10.296Z,35
2018-12-21T13:34:20.242Z,35
2018-12-21T13:35:30.201Z,30
2018-12-21T13:36:41.444Z,30
2018-12-21T13:37:51.131Z,25
2018-12-21T13:39:01.082Z,25
2018-12-21T13:40:11.021Z,20
2018-12-21T13:41:20.700Z,25
2018-12-21T13:42:31.694Z,25
2018-12-21T13:43:41.659Z,25
2018-12-21T13:44:51.351Z,25
2018-12-21T13:46:01.303Z,25
2018-12-21T13:47:10.758Z,25
2018-12-21T13:48:20.700Z,25
2018-12-21T13:49:30.656Z,25
2018-12-21T13:50:40.603Z,25
2018-12-21T13:51:50.310Z,25
2018-12-21T13:53:00.278Z,25
2018-12-21T13:54:09.975Z,25
2018-12-21T13:55:27.726Z,25
2018-12-21T13:56:37.673Z,25
2018-12-21T13:57:47.369Z,25
2018-12-21T13:58:57.321Z,25
2018-12-21T14:00:07.065Z,20
2018-12-21T14:01:17.007Z,20
2018-12-21T14:02:26.966Z,20
2018-12-21T14:03:36.665Z,20
2018-12-21T14:04:46.370Z,25
2018-12-21T14:05:56.330Z,20
2018-12-21T14:07:06.274Z,20
2018-12-21T14:08:15.710Z,20
2018-12-21T14:09:26.518Z,20
2018-12-21T14:10:36.257Z,20
2018-12-21T14:11:45.950Z,20
2018-12-21T14:12:55.895Z,20
2018-12-21T14:14:05.868Z,20
2018-12-21T14:15:15.807Z,20
2018-12-21T14:16:25.504Z,20
2018-12-21T14:17:35.545Z,20
2018-12-21T14:18:45.255Z,15
2018-12-21T14:19:55.215Z,15
2018-12-21T14:21:05.163Z,15
2018-12-21T14:22:14.864Z,10
2018-12-21T14:23:24.694Z,10
2018-12-21T14:24:34.379Z,15
2018-12-21T14:25:45.950Z,10
2018-12-21T14:26:55.917Z,10
2018-12-21T14:28:05.611Z,10
2018-12-21T14:29:15.572Z,10
2018-12-21T14:30:25.507Z,10
2018-12-21T14:31:35.471Z,10
2018-12-21T14:32:45.426Z,5
2018-12-21T14:33:55.357Z,10
2018-12-21T14:35:05.300Z,5
2018-12-21T14:36:14.762Z,5
2018-12-21T14:37:24.741Z,5
2018-12-21T14:38:34.454Z,5
2018-12-21T14:39:44.149Z,5
2018-12-21T14:40:53.839Z,5
2018-12-21T14:42:03.795Z,5
2018-12-21T14:43:13.487Z,0
2018-12-21T14:44:23.437Z,0
2018-12-21T14:45:32.853Z,0
2018-12-21T14:46:42.567Z,0
2018-12-21T14:47:52.505Z,0
2018-12-21T14:49:02.201Z,0
2018-12-21T14:50:12.152Z,0
2018-12-21T14:51:22.116Z,0
2018-12-21T14:52:32.093Z,0
2018-12-21T14:53:42.100Z,0
2018-12-21T14:54:52.399Z,0
2018-12-21T14:56:02.103Z,0
2018-12-21T14:57:11.563Z,0
2018-12-21T14:58:21.255Z,0
2018-12-21T14:59:30.945Z,0
2018-12-21T15:00:40.956Z,0
2018-12-21T15:01:50.922Z,0
2018-12-21T15:03:00.879Z,0
2018-12-21T15:04:10.822Z,0
2018-12-21T15:05:20.780Z,0
2018-12-21T15:06:30.798Z,0
2018-12-21T15:07:40.499Z,0
2018-12-21T15:08:50.195Z,0
2018-12-21T15:09:59.900Z,0
2018-12-21T15:11:09.827Z,0
2018-12-21T15:12:19.163Z,0
2018-12-21T15:13:28.880Z,0
2018-12-21T15:14:38.580Z,0
2018-12-21T15:15:48.269Z,0
2018-12-21T15:16:57.982Z,0
2018-12-21T15:18:07.682Z,0
2018-12-21T15:19:17.116Z,0
2018-12-21T15:20:26.558Z,0
2018-12-21T15:21:36.588Z,0
2018-12-21T15:22:46.278Z,0
2018-12-21T15:23:55.742Z,0
2018-12-21T15:25:05.689Z,0
2018-12-21T15:26:15.629Z,0
2018-12-21T15:27:25.583Z,0
2018-12-21T15:28:35.537Z,0
2018-12-21T15:29:45.946Z,0
2018-12-21T15:30:55.657Z,0
2018-12-21T15:32:05.091Z,0
2018-12-21T15:33:15.047Z,0
2018-12-21T15:34:24.979Z,0
2018-12-21T15:35:34.434Z,0
2018-12-21T15:36:44.377Z,0
2018-12-21T15:37:54.061Z,0
2018-12-21T15:39:04.010Z,0
2018-12-21T15:40:13.713Z,0
2018-12-21T15:41:23.402Z,0
2018-12-21T15:42:33.335Z,0
2018-12-21T15:43:43.297Z,0
2018-12-21T15:44:53.233Z,0
2018-12-21T15:46:02.948Z,0
2018-12-21T15:47:18.583Z,0
2018-12-21T15:48:28.271Z,0
2018-12-21T15:49:37.971Z,0
2018-12-21T15:50:47.923Z,0
2018-12-21T15:51:57.873Z,0
2018-12-21T15:53:07.801Z,0
2018-12-21T15:54:17.505Z,0
2018-12-21T15:55:27.443Z,0
2018-12-21T15:56:37.136Z,0
2018-12-21T15:57:47.100Z,0
2018-12-21T15:58:56.791Z,0
2018-12-21T16:00:06.483Z,0
2018-12-21T16:01:16.185Z,0
2018-12-21T16:02:25.882Z,0
2018-12-21T16:03:35.824Z,0
2018-12-21T16:04:45.766Z,0
2018-12-21T16:05:55.727Z,0
2018-12-21T16:07:05.677Z,0
2018-12-21T16:08:15.644Z,0
2018-12-21T16:09:25.340Z,0
2018-12-21T16:10:34.771Z,0
2018-12-21T16:11:44.726Z,0
2018-12-21T16:12:54.425Z,0
2018-12-21T16:14:04.377Z,0
2018-12-21T16:15:14.325Z,0
2018-12-21T16:16:24.269Z,0
2018-12-21T16:17:34.300Z,0
2018-12-21T16:18:44.261Z,0
2018-12-21T16:19:54.235Z,0
2018-12-21T16:21:04.177Z,0
2018-12-21T16:22:14.134Z,0
2018-12-21T16:23:23.604Z,0
2018-12-21T16:24:33.552Z,0
2018-12-21T16:25:43.503Z,0
2018-12-21T16:26:53.451Z,0
2018-12-21T16:28:02.894Z,0
2018-12-21T16:29:12.851Z,0
2018-12-21T16:30:22.794Z,0
2018-12-21T16:31:32.478Z,0
2018-12-21T16:32:42.437Z,0
2018-12-21T16:33:52.383Z,0
2018-12-21T16:35:02.332Z,0
2018-12-21T16:36:12.325Z,0
2018-12-21T16:37:22.286Z,0
2018-12-21T16:38:32.235Z,0
2018-12-21T16:39:41.939Z,0
2018-12-21T16:40:51.885Z,0
2018-12-21T16:42:01.837Z,0
2018-12-21T16:43:11.817Z,0
2018-12-21T16:44:21.775Z,0
2018-12-21T16:45:31.723Z,0
2018-12-21T16:46:41.665Z,0
2018-12-21T16:47:51.367Z,0
2018-12-21T16:49:01.307Z,0
2018-12-21T16:50:11.431Z,0
2018-12-21T16:51:21.389Z,0
2018-12-21T16:52:31.339Z,0